createdAt,value
2019-05-21T00:00:05.372Z,962.48
2019-05-21T00:01:05.392Z,962.48
2019-05-21T00:02:05.101Z,962.43
2019-05-21T00:03:05.146Z,962.43
2019-05-21T00:04:10.196Z,962.59
2019-05-21T00:05:04.543Z,962.51
2019-05-21T00:06:04.761Z,962.48
2019-05-21T00:07:05.423Z,962.59
2019-05-21T00:08:05.104Z,962.57
2019-05-21T00:09:05.094Z,962.57
2019-05-21T00:10:05.195Z,962.48
2019-05-21T00:11:05.215Z,962.51
2019-05-21T00:12:04.543Z,962.48
2019-05-21T00:13:04.688Z,962.48
2019-05-21T00:14:05.310Z,962.54
2019-05-21T00:15:05.255Z,962.48
2019-05-21T00:16:05.372Z,962.51
2019-05-21T00:17:05.579Z,962.54
2019-05-21T00:18:04.812Z,962.57
2019-05-21T00:19:05.410Z,962.46
2019-05-21T00:20:04.504Z,962.54
2019-05-21T00:21:04.657Z,962.54
2019-05-21T00:22:04.625Z,962.54
2019-05-21T00:23:05.051Z,962.54
2019-05-21T00:24:04.673Z,962.51
2019-05-21T00:25:04.667Z,962.57
2019-05-21T00:26:05.062Z,962.74
2019-05-21T00:27:05.012Z,962.54
2019-05-21T00:28:04.565Z,962.51
2019-05-21T00:29:04.829Z,962.49
2019-05-21T00:30:05.088Z,962.47
2019-05-21T00:31:05.115Z,962.44
2019-05-21T00:32:05.374Z,962.55
2019-05-21T00:33:04.647Z,962.52
2019-05-21T00:34:04.739Z,962.49
2019-05-21T00:35:05.091Z,962.64
2019-05-21T00:36:05.288Z,962.64
2019-05-21T00:37:05.350Z,962.58
2019-05-21T00:38:04.706Z,962.67
2019-05-21T00:39:04.840Z,962.67
2019-05-21T00:40:04.946Z,962.53
2019-05-21T00:41:04.987Z,962.53
2019-05-21T00:42:05.252Z,962.59
2019-05-21T00:43:05.370Z,962.62
2019-05-21T00:44:09.756Z,962.59
2019-05-21T00:45:05.068Z,962.79
2019-05-21T00:46:04.783Z,962.71
2019-05-21T00:47:05.334Z,962.53
2019-05-21T00:48:06.206Z,962.65
2019-05-21T00:49:04.946Z,962.71
2019-05-21T00:50:04.926Z,962.74
2019-05-21T00:51:05.020Z,962.65
2019-05-21T00:52:09.411Z,962.79
2019-05-21T00:53:04.982Z,962.62
2019-05-21T00:54:05.241Z,962.71
2019-05-21T00:55:04.540Z,962.68
2019-05-21T00:56:05.239Z,962.62
2019-05-21T00:57:05.185Z,962.77
2019-05-21T00:58:05.024Z,962.68
2019-05-21T00:59:05.118Z,962.68
2019-05-21T01:00:05.367Z,962.51
2019-05-21T01:01:04.758Z,962.60
2019-05-21T01:02:05.284Z,962.69
2019-05-21T01:03:04.912Z,962.60
2019-05-21T01:04:10.389Z,962.69
2019-05-21T01:05:04.814Z,962.72
2019-05-21T01:06:05.342Z,962.63
2019-05-21T01:07:04.575Z,962.69
2019-05-21T01:08:05.100Z,962.61
2019-05-21T01:09:05.350Z,962.81
2019-05-21T01:10:05.287Z,962.66
2019-05-21T01:11:04.997Z,962.72
2019-05-21T01:12:05.044Z,962.64
2019-05-21T01:13:05.020Z,962.70
2019-05-21T01:14:04.468Z,962.64
2019-05-21T01:15:05.054Z,962.78
2019-05-21T01:16:05.188Z,962.81
2019-05-21T01:17:05.166Z,962.64
2019-05-21T01:18:04.599Z,962.81
2019-05-21T01:19:04.805Z,962.87
2019-05-21T01:20:04.829Z,962.87
2019-05-21T01:21:04.914Z,962.78
2019-05-21T01:22:05.132Z,962.81
2019-05-21T01:23:05.133Z,962.90
2019-05-21T01:24:05.194Z,962.78
2019-05-21T01:25:04.739Z,962.90
2019-05-21T01:26:04.679Z,962.76
2019-05-21T01:27:05.372Z,962.84
2019-05-21T01:28:05.402Z,962.81
2019-05-21T01:29:04.785Z,962.84
2019-05-21T01:30:04.927Z,962.90
2019-05-21T01:31:05.090Z,962.81
2019-05-21T01:32:05.515Z,962.84
2019-05-21T01:33:05.058Z,962.84
2019-05-21T01:34:05.247Z,962.79
2019-05-21T01:35:17.614Z,962.81
2019-05-21T01:36:05.386Z,962.82
2019-05-21T01:37:04.832Z,962.90
2019-05-21T01:38:05.214Z,962.79
2019-05-21T01:39:04.604Z,962.87
2019-05-21T01:40:05.323Z,962.82
2019-05-21T01:41:05.382Z,962.82
2019-05-21T01:42:04.725Z,962.76
2019-05-21T01:43:05.282Z,962.93
2019-05-21T01:44:04.565Z,962.79
2019-05-21T01:45:04.686Z,962.82
2019-05-21T01:46:04.720Z,962.85
2019-05-21T01:47:05.055Z,962.96
2019-05-21T01:48:04.975Z,962.93
2019-05-21T01:49:05.152Z,962.90
2019-05-21T01:50:05.228Z,962.82
2019-05-21T01:51:05.292Z,962.85
2019-05-21T01:52:09.944Z,962.82
2019-05-21T01:53:05.334Z,962.79
2019-05-21T01:54:05.411Z,962.88
2019-05-21T01:55:04.646Z,962.88
2019-05-21T01:56:04.591Z,962.88
2019-05-21T01:57:04.796Z,962.93
2019-05-21T01:58:04.684Z,962.96
2019-05-21T01:59:04.742Z,962.93
2019-05-21T02:00:05.240Z,962.84
2019-05-21T02:01:05.333Z,962.82
2019-05-21T02:02:05.395Z,962.76
2019-05-21T02:03:04.885Z,962.79
2019-05-21T02:04:04.575Z,962.79
2019-05-21T02:05:04.572Z,962.87
2019-05-21T02:06:04.581Z,962.96
2019-05-21T02:07:05.114Z,962.78
2019-05-21T02:08:05.326Z,962.87
2019-05-21T02:09:05.310Z,962.90
2019-05-21T02:10:05.543Z,962.90
2019-05-21T02:11:04.887Z,962.78
2019-05-21T02:12:05.029Z,962.96
2019-05-21T02:13:05.053Z,962.90
2019-05-21T02:14:04.642Z,962.87
2019-05-21T02:15:05.108Z,962.90
2019-05-21T02:16:05.286Z,962.78
2019-05-21T02:17:05.315Z,962.73
2019-05-21T02:18:04.597Z,962.78
2019-05-21T02:19:04.473Z,962.78
2019-05-21T02:20:04.771Z,962.75
2019-05-21T02:21:04.672Z,962.78
2019-05-21T02:22:05.159Z,962.67
2019-05-21T02:23:04.520Z,962.78
2019-05-21T02:24:04.880Z,962.78
2019-05-21T02:25:05.329Z,962.70
2019-05-21T02:26:04.682Z,962.81
2019-05-21T02:27:04.805Z,962.75
2019-05-21T02:28:04.586Z,962.90
2019-05-21T02:29:04.838Z,962.90
2019-05-21T02:30:06.810Z,962.89
2019-05-21T02:31:04.634Z,962.75
2019-05-21T02:32:04.853Z,962.81
2019-05-21T02:33:05.386Z,962.87
2019-05-21T02:34:04.975Z,962.92
2019-05-21T02:35:05.220Z,962.84
2019-05-21T02:36:05.362Z,962.81
2019-05-21T02:37:06.888Z,962.87
2019-05-21T02:38:04.651Z,962.84
2019-05-21T02:39:05.086Z,962.89
2019-05-21T02:40:05.172Z,962.84
2019-05-21T02:41:04.711Z,962.89
2019-05-21T02:42:05.329Z,962.89
2019-05-21T02:43:04.489Z,962.95
2019-05-21T02:44:09.826Z,962.95
2019-05-21T02:45:05.205Z,962.80
2019-05-21T02:46:05.247Z,962.89
2019-05-21T02:47:05.197Z,962.86
2019-05-21T02:48:05.153Z,962.89
2019-05-21T02:49:05.321Z,962.89
2019-05-21T02:50:05.352Z,962.86
2019-05-21T02:51:05.355Z,962.86
2019-05-21T02:52:04.481Z,962.86
2019-05-21T02:53:04.968Z,963.00
2019-05-21T02:54:05.290Z,962.86
2019-05-21T02:55:04.797Z,962.94
2019-05-21T02:56:04.833Z,963.03
2019-05-21T02:57:05.300Z,962.85
2019-05-21T02:58:04.784Z,962.97
2019-05-21T02:59:05.058Z,963.06
2019-05-21T03:00:05.053Z,962.97
2019-05-21T03:01:05.293Z,962.94
2019-05-21T03:02:04.803Z,963.03
2019-05-21T03:03:04.723Z,962.94
2019-05-21T03:04:04.716Z,963.00
2019-05-21T03:05:05.218Z,962.83
2019-05-21T03:06:15.099Z,962.94
2019-05-21T03:07:04.721Z,962.89
2019-05-21T03:08:04.875Z,963.09
2019-05-21T03:09:04.836Z,962.97
2019-05-21T03:10:05.330Z,963.00
2019-05-21T03:11:04.990Z,962.97
2019-05-21T03:12:04.422Z,963.00
2019-05-21T03:13:04.843Z,962.94
2019-05-21T03:14:04.420Z,963.09
2019-05-21T03:15:05.031Z,962.94
2019-05-21T03:16:04.710Z,962.97
2019-05-21T03:17:04.876Z,962.91
2019-05-21T03:18:05.343Z,962.94
2019-05-21T03:19:04.986Z,962.91
2019-05-21T03:20:04.630Z,962.97
2019-05-21T03:21:04.623Z,963.06
2019-05-21T03:22:05.403Z,963.03
2019-05-21T03:23:05.428Z,962.97
2019-05-21T03:24:04.599Z,963.00
2019-05-21T03:25:04.969Z,962.83
2019-05-21T03:26:05.007Z,963.08
2019-05-21T03:27:04.931Z,963.03
2019-05-21T03:28:05.180Z,962.94
2019-05-21T03:29:04.602Z,962.85
2019-05-21T03:30:04.944Z,962.97
2019-05-21T03:31:05.269Z,963.02
2019-05-21T03:32:05.222Z,962.91
2019-05-21T03:33:04.824Z,963.08
2019-05-21T03:34:05.422Z,963.00
2019-05-21T03:35:04.524Z,962.91
2019-05-21T03:36:04.983Z,962.97
2019-05-21T03:37:05.137Z,963.08
2019-05-21T03:38:04.860Z,962.91
2019-05-21T03:39:05.054Z,962.97
2019-05-21T03:40:05.173Z,963.05
2019-05-21T03:41:04.639Z,962.97
2019-05-21T03:42:04.972Z,963.02
2019-05-21T03:43:05.360Z,962.94
2019-05-21T03:44:09.634Z,963.11
2019-05-21T03:45:08.498Z,963.08
2019-05-21T03:46:05.280Z,963.14
2019-05-21T03:47:05.241Z,963.14
2019-05-21T03:48:04.519Z,963.05
2019-05-21T03:49:04.884Z,963.02
2019-05-21T03:50:04.994Z,963.08
2019-05-21T03:51:05.240Z,962.99
2019-05-21T03:52:04.494Z,963.22
2019-05-21T03:53:04.546Z,963.14
2019-05-21T03:54:05.174Z,963.17
2019-05-21T03:55:04.648Z,963.05
2019-05-21T03:56:04.756Z,963.05
2019-05-21T03:57:05.105Z,963.08
2019-05-21T03:58:05.399Z,963.08
2019-05-21T03:59:05.031Z,963.19
2019-05-21T04:00:05.162Z,963.14
2019-05-21T04:01:04.626Z,963.05
2019-05-21T04:02:04.882Z,963.19
2019-05-21T04:03:04.830Z,963.16
2019-05-21T04:04:10.600Z,963.17
2019-05-21T04:05:04.601Z,963.17
2019-05-21T04:06:05.485Z,963.25
2019-05-21T04:07:04.989Z,963.22
2019-05-21T04:08:05.098Z,963.25
2019-05-21T04:09:05.377Z,963.28
2019-05-21T04:10:05.417Z,963.28
2019-05-21T04:11:04.830Z,963.22
2019-05-21T04:12:04.859Z,963.31
2019-05-21T04:13:04.858Z,963.22
2019-05-21T04:14:05.038Z,963.25
2019-05-21T04:15:04.475Z,963.17
2019-05-21T04:16:04.823Z,963.34
2019-05-21T04:17:04.536Z,963.17
2019-05-21T04:18:04.987Z,963.25
2019-05-21T04:19:05.154Z,963.25
2019-05-21T04:20:05.253Z,963.28
2019-05-21T04:21:05.432Z,963.28
2019-05-21T04:22:04.654Z,963.31
2019-05-21T04:23:04.921Z,963.19
2019-05-21T04:24:09.656Z,963.34
2019-05-21T04:25:06.065Z,963.34
2019-05-21T04:26:05.372Z,963.31
2019-05-21T04:27:05.050Z,963.31
2019-05-21T04:28:05.531Z,963.34
2019-05-21T04:29:04.625Z,963.28
2019-05-21T04:30:04.643Z,963.39
2019-05-21T04:31:05.298Z,963.22
2019-05-21T04:32:04.692Z,963.36
2019-05-21T04:33:04.720Z,963.45
2019-05-21T04:34:05.229Z,963.31
2019-05-21T04:35:05.478Z,963.39
2019-05-21T04:36:05.479Z,963.28
2019-05-21T04:37:11.926Z,963.36
2019-05-21T04:38:05.061Z,963.42
2019-05-21T04:39:05.357Z,963.39
2019-05-21T04:40:05.493Z,963.36
2019-05-21T04:41:04.566Z,963.45
2019-05-21T04:42:05.030Z,963.36
2019-05-21T04:43:05.322Z,963.59
2019-05-21T04:44:06.885Z,963.56
2019-05-21T04:45:05.068Z,963.45
2019-05-21T04:46:04.732Z,963.59
2019-05-21T04:47:05.339Z,963.56
2019-05-21T04:48:04.732Z,963.39
2019-05-21T04:49:04.781Z,963.53
2019-05-21T04:50:04.860Z,963.50
2019-05-21T04:51:04.882Z,963.53
2019-05-21T04:52:04.698Z,963.59
2019-05-21T04:53:05.246Z,963.59
2019-05-21T04:54:04.930Z,963.68
2019-05-21T04:55:04.578Z,963.47
2019-05-21T04:56:04.957Z,963.47
2019-05-21T04:57:05.321Z,963.56
2019-05-21T04:58:04.745Z,963.56
2019-05-21T04:59:04.726Z,963.59
2019-05-21T05:00:09.514Z,963.59
2019-05-21T05:01:04.992Z,963.62
2019-05-21T05:02:05.136Z,963.53
2019-05-21T05:03:05.496Z,963.53
2019-05-21T05:04:05.230Z,963.55
2019-05-21T05:05:05.018Z,963.47
2019-05-21T05:06:05.438Z,963.47
2019-05-21T05:07:05.397Z,963.55
2019-05-21T05:08:05.221Z,963.61
2019-05-21T05:09:04.814Z,963.52
2019-05-21T05:10:04.724Z,963.49
2019-05-21T05:11:05.297Z,963.49
2019-05-21T05:12:04.897Z,963.66
2019-05-21T05:13:05.145Z,963.57
2019-05-21T05:14:05.273Z,963.49
2019-05-21T05:15:04.990Z,963.51
2019-05-21T05:16:05.407Z,963.69
2019-05-21T05:17:05.366Z,963.54
2019-05-21T05:18:05.490Z,963.69
2019-05-21T05:19:05.421Z,963.57
2019-05-21T05:20:10.066Z,963.57
2019-05-21T05:21:05.507Z,963.65
2019-05-21T05:22:05.093Z,963.60
2019-05-21T05:23:05.387Z,963.57
2019-05-21T05:24:04.869Z,963.65
2019-05-21T05:25:05.047Z,963.71
2019-05-21T05:26:05.086Z,963.59
2019-05-21T05:27:05.271Z,963.73
2019-05-21T05:28:05.430Z,963.82
2019-05-21T05:29:04.776Z,963.76
2019-05-21T05:30:04.776Z,963.87
2019-05-21T05:31:05.108Z,963.81
2019-05-21T05:32:04.658Z,963.86
2019-05-21T05:33:04.792Z,963.89
2019-05-21T05:34:05.291Z,964.02
2019-05-21T05:35:05.408Z,963.80
2019-05-21T05:36:05.509Z,964.02
2019-05-21T05:37:05.072Z,963.99
2019-05-21T05:38:05.220Z,963.83
2019-05-21T05:39:05.377Z,963.93
2019-05-21T05:40:04.613Z,963.83
2019-05-21T05:41:05.276Z,963.99
2019-05-21T05:42:04.533Z,963.98
2019-05-21T05:43:04.947Z,963.95
2019-05-21T05:44:09.640Z,963.84
2019-05-21T05:45:05.112Z,963.90
2019-05-21T05:46:04.757Z,964.07
2019-05-21T05:47:05.055Z,963.99
2019-05-21T05:48:05.485Z,964.10
2019-05-21T05:49:04.896Z,964.18
2019-05-21T05:50:05.085Z,963.95
2019-05-21T05:51:05.368Z,964.00
2019-05-21T05:52:04.677Z,964.03
2019-05-21T05:53:05.140Z,964.17
2019-05-21T05:54:07.972Z,964.22
2019-05-21T05:55:04.912Z,964.31
2019-05-21T05:56:05.429Z,964.16
2019-05-21T05:57:05.032Z,964.11
2019-05-21T05:58:05.594Z,964.25
2019-05-21T05:59:04.486Z,964.36
2019-05-21T06:00:04.919Z,964.22
2019-05-21T06:01:05.026Z,964.28
2019-05-21T06:02:05.083Z,964.22
2019-05-21T06:03:05.546Z,964.34
2019-05-21T06:04:04.577Z,964.19
2019-05-21T06:05:04.716Z,964.19
2019-05-21T06:06:04.818Z,964.14
2019-05-21T06:07:05.303Z,964.22
2019-05-21T06:08:10.529Z,964.28
2019-05-21T06:09:04.968Z,964.28
2019-05-21T06:10:05.459Z,964.23
2019-05-21T06:11:05.062Z,964.17
2019-05-21T06:12:05.159Z,964.17
2019-05-21T06:13:04.653Z,964.38
2019-05-21T06:14:05.220Z,964.23
2019-05-21T06:15:05.064Z,964.23
2019-05-21T06:16:05.187Z,964.26
2019-05-21T06:17:05.430Z,964.27
2019-05-21T06:18:05.176Z,964.32
2019-05-21T06:19:04.683Z,964.35
2019-05-21T06:20:04.859Z,964.35
2019-05-21T06:21:05.579Z,964.30
2019-05-21T06:22:05.017Z,964.35
2019-05-21T06:23:04.700Z,964.36
2019-05-21T06:24:05.022Z,964.39
2019-05-21T06:25:05.530Z,964.33
2019-05-21T06:26:04.692Z,964.41
2019-05-21T06:27:05.336Z,964.21
2019-05-21T06:28:05.026Z,964.30
2019-05-21T06:29:04.862Z,964.30
2019-05-21T06:30:05.001Z,964.29
2019-05-21T06:31:04.585Z,964.38
2019-05-21T06:32:05.172Z,964.24
2019-05-21T06:33:05.236Z,964.26
2019-05-21T06:34:05.346Z,964.32
2019-05-21T06:35:05.097Z,964.29
2019-05-21T06:36:05.174Z,964.26
2019-05-21T06:37:05.359Z,964.34
2019-05-21T06:38:18.401Z,964.20
2019-05-21T06:39:05.056Z,964.31
2019-05-21T06:40:05.100Z,964.34
2019-05-21T06:41:04.951Z,964.42
2019-05-21T06:42:05.481Z,964.28
2019-05-21T06:43:04.527Z,964.33
2019-05-21T06:44:10.156Z,964.36
2019-05-21T06:45:04.649Z,964.42
2019-05-21T06:46:04.748Z,964.47
2019-05-21T06:47:04.976Z,964.47
2019-05-21T06:48:05.063Z,964.47
2019-05-21T06:49:04.755Z,964.39
2019-05-21T06:50:04.769Z,964.41
2019-05-21T06:51:05.266Z,964.41
2019-05-21T06:52:05.543Z,964.59
2019-05-21T06:53:04.540Z,964.53
2019-05-21T06:54:05.236Z,964.55
2019-05-21T06:55:05.622Z,964.53
2019-05-21T06:56:08.027Z,964.64
2019-05-21T06:57:04.713Z,964.70
2019-05-21T06:58:05.047Z,964.67
2019-05-21T06:59:05.315Z,964.76
2019-05-21T07:00:05.551Z,964.73
2019-05-21T07:01:05.288Z,964.67
2019-05-21T07:02:05.559Z,964.62
2019-05-21T07:03:04.626Z,964.76
2019-05-21T07:04:04.823Z,964.64
2019-05-21T07:05:05.319Z,964.79
2019-05-21T07:06:04.625Z,964.76
2019-05-21T07:07:04.664Z,964.76
2019-05-21T07:08:05.424Z,964.73
2019-05-21T07:09:04.713Z,964.73
2019-05-21T07:10:04.721Z,964.73
2019-05-21T07:11:04.961Z,964.83
2019-05-21T07:12:04.997Z,964.75
2019-05-21T07:13:05.052Z,964.83
2019-05-21T07:14:05.497Z,964.78
2019-05-21T07:15:04.779Z,964.91
2019-05-21T07:16:04.824Z,964.75
2019-05-21T07:17:04.545Z,964.85
2019-05-21T07:18:04.984Z,964.80
2019-05-21T07:19:04.568Z,964.74
2019-05-21T07:20:05.141Z,964.85
2019-05-21T07:21:04.842Z,964.90
2019-05-21T07:22:13.483Z,964.74
2019-05-21T07:23:05.716Z,964.76
2019-05-21T07:24:04.675Z,964.90
2019-05-21T07:25:04.718Z,964.90
2019-05-21T07:26:04.820Z,964.86
2019-05-21T07:27:05.005Z,964.86
2019-05-21T07:28:05.116Z,964.95
2019-05-21T07:29:05.303Z,965.03
2019-05-21T07:30:04.720Z,964.89
2019-05-21T07:31:04.934Z,964.92
2019-05-21T07:32:04.993Z,964.97
2019-05-21T07:33:05.151Z,965.03
2019-05-21T07:34:04.995Z,965.08
2019-05-21T07:35:04.481Z,965.11
2019-05-21T07:36:05.485Z,965.08
2019-05-21T07:37:04.842Z,965.05
2019-05-21T07:38:04.979Z,965.05
2019-05-21T07:39:05.105Z,965.14
2019-05-21T07:40:05.389Z,965.20
2019-05-21T07:41:05.387Z,965.25
2019-05-21T07:42:04.564Z,965.22
2019-05-21T07:43:05.316Z,965.14
2019-05-21T07:44:10.523Z,965.25
2019-05-21T07:45:04.977Z,965.22
2019-05-21T07:46:04.751Z,965.25
2019-05-21T07:47:04.949Z,965.11
2019-05-21T07:48:05.034Z,965.28
2019-05-21T07:49:05.021Z,965.22
2019-05-21T07:50:04.526Z,965.25
2019-05-21T07:51:04.669Z,965.30
2019-05-21T07:52:04.778Z,965.33
2019-05-21T07:53:05.387Z,965.19
2019-05-21T07:54:04.661Z,965.24
2019-05-21T07:55:04.646Z,965.30
2019-05-21T07:56:04.822Z,965.33
2019-05-21T07:57:04.955Z,965.30
2019-05-21T07:58:05.166Z,965.21
2019-05-21T07:59:05.270Z,965.24
2019-05-21T08:00:04.475Z,965.41
2019-05-21T08:01:04.941Z,965.33
2019-05-21T08:02:04.525Z,965.38
2019-05-21T08:03:04.782Z,965.27
2019-05-21T08:04:09.858Z,965.41
2019-05-21T08:05:05.857Z,965.24
2019-05-21T08:06:05.165Z,965.21
2019-05-21T08:07:05.522Z,965.41
2019-05-21T08:08:05.131Z,965.38
2019-05-21T08:09:14.765Z,965.33
2019-05-21T08:10:04.651Z,965.33
2019-05-21T08:11:05.478Z,965.33
2019-05-21T08:12:38.472Z,965.35
2019-05-21T08:13:04.950Z,965.44
2019-05-21T08:14:05.390Z,965.44
2019-05-21T08:15:04.867Z,965.50
2019-05-21T08:16:04.542Z,965.47
2019-05-21T08:17:04.737Z,965.32
2019-05-21T08:18:05.037Z,965.41
2019-05-21T08:19:05.185Z,965.46
2019-05-21T08:20:11.043Z,965.55
2019-05-21T08:21:04.650Z,965.49
2019-05-21T08:22:05.036Z,965.55
2019-05-21T08:23:05.220Z,965.38
2019-05-21T08:24:05.213Z,965.49
2019-05-21T08:25:04.721Z,965.58
2019-05-21T08:26:04.682Z,965.60
2019-05-21T08:27:04.938Z,965.52
2019-05-21T08:28:05.379Z,965.43
2019-05-21T08:29:05.564Z,965.60
2019-05-21T08:30:04.987Z,965.54
2019-05-21T08:31:04.879Z,965.65
2019-05-21T08:32:05.097Z,965.45
2019-05-21T08:33:04.701Z,965.57
2019-05-21T08:34:05.014Z,965.61
2019-05-21T08:35:05.480Z,965.64
2019-05-21T08:36:05.753Z,965.61
2019-05-21T08:37:04.904Z,965.72
2019-05-21T08:38:07.255Z,965.69
2019-05-21T08:39:04.848Z,965.86
2019-05-21T08:40:05.090Z,965.83
2019-05-21T08:41:05.606Z,965.81
2019-05-21T08:42:04.507Z,965.81
2019-05-21T08:43:05.493Z,965.81
2019-05-21T08:44:09.571Z,965.99
2019-05-21T08:45:05.564Z,965.93
2019-05-21T08:46:04.819Z,965.93
2019-05-21T08:47:05.333Z,965.96
2019-05-21T08:48:04.916Z,966.05
2019-05-21T08:49:05.404Z,966.00
2019-05-21T08:50:04.599Z,965.92
2019-05-21T08:51:05.345Z,965.98
2019-05-21T08:52:05.143Z,965.98
2019-05-21T08:53:04.664Z,966.10
2019-05-21T08:54:05.222Z,966.13
2019-05-21T08:55:04.820Z,965.99
2019-05-21T08:56:06.892Z,966.08
2019-05-21T08:57:05.305Z,966.11
2019-05-21T08:58:08.039Z,966.05
2019-05-21T08:59:04.687Z,966.05
2019-05-21T09:00:05.079Z,966.11
2019-05-21T09:01:05.357Z,966.17
2019-05-21T09:02:04.668Z,966.20
2019-05-21T09:03:04.951Z,966.17
2019-05-21T09:04:09.939Z,966.11
2019-05-21T09:05:05.130Z,966.25
2019-05-21T09:06:05.367Z,966.20
2019-05-21T09:07:04.961Z,966.20
2019-05-21T09:08:05.043Z,966.16
2019-05-21T09:09:04.494Z,966.25
2019-05-21T09:10:05.062Z,966.31
2019-05-21T09:11:05.181Z,966.19
2019-05-21T09:12:04.593Z,966.25
2019-05-21T09:13:05.018Z,966.22
2019-05-21T09:14:05.479Z,966.33
2019-05-21T09:15:05.242Z,966.30
2019-05-21T09:16:04.812Z,966.16
2019-05-21T09:17:05.255Z,966.31
2019-05-21T09:18:05.319Z,966.25
2019-05-21T09:19:04.586Z,966.31
2019-05-21T09:20:05.025Z,966.28
2019-05-21T09:21:05.382Z,966.29
2019-05-21T09:22:04.574Z,966.37
2019-05-21T09:23:05.233Z,966.40
2019-05-21T09:24:05.334Z,966.49
2019-05-21T09:25:04.930Z,966.26
2019-05-21T09:26:05.315Z,966.40
2019-05-21T09:27:05.497Z,966.34
2019-05-21T09:28:04.599Z,966.28
2019-05-21T09:29:05.115Z,966.31
2019-05-21T09:30:05.243Z,966.39
2019-05-21T09:31:05.403Z,966.42
2019-05-21T09:32:05.051Z,966.37
2019-05-21T09:33:05.221Z,966.42
2019-05-21T09:34:04.606Z,966.48
2019-05-21T09:35:05.241Z,966.48
2019-05-21T09:36:04.808Z,966.46
2019-05-21T09:37:20.179Z,966.51
2019-05-21T09:38:04.895Z,966.54
2019-05-21T09:39:05.032Z,966.51
2019-05-21T09:40:05.206Z,966.62
2019-05-21T09:41:05.360Z,966.51
2019-05-21T09:42:05.127Z,966.47
2019-05-21T09:43:04.667Z,966.68
2019-05-21T09:44:09.828Z,966.53
2019-05-21T09:45:05.305Z,966.67
2019-05-21T09:46:04.501Z,966.56
2019-05-21T09:47:05.282Z,966.61
2019-05-21T09:48:04.961Z,966.64
2019-05-21T09:49:04.596Z,966.55
2019-05-21T09:50:05.482Z,966.63
2019-05-21T09:51:05.577Z,966.69
2019-05-21T09:52:04.831Z,966.60
2019-05-21T09:53:05.408Z,966.66
2019-05-21T09:54:05.460Z,966.57
2019-05-21T09:55:04.609Z,966.71
2019-05-21T09:56:05.229Z,966.65
2019-05-21T09:57:05.349Z,966.68
2019-05-21T09:58:04.678Z,966.71
2019-05-21T09:59:05.322Z,966.73
2019-05-21T10:00:04.807Z,966.64
2019-05-21T10:01:04.964Z,966.73
2019-05-21T10:02:05.294Z,966.67
2019-05-21T10:03:05.278Z,966.90
2019-05-21T10:04:04.778Z,966.78
2019-05-21T10:05:04.550Z,966.83
2019-05-21T10:06:05.021Z,966.74
2019-05-21T10:07:10.192Z,966.77
2019-05-21T10:08:05.332Z,966.69
2019-05-21T10:09:05.118Z,966.77
2019-05-21T10:10:05.192Z,966.80
2019-05-21T10:11:05.167Z,966.92
2019-05-21T10:12:04.500Z,966.80
2019-05-21T10:13:05.157Z,966.92
2019-05-21T10:14:04.638Z,966.81
2019-05-21T10:15:04.871Z,966.81
2019-05-21T10:16:04.992Z,966.77
2019-05-21T10:17:05.429Z,966.72
2019-05-21T10:18:04.731Z,966.74
2019-05-21T10:19:04.929Z,966.74
2019-05-21T10:20:05.463Z,966.79
2019-05-21T10:21:05.086Z,966.75
2019-05-21T10:22:05.556Z,966.92
2019-05-21T10:23:05.460Z,966.82
2019-05-21T10:24:04.827Z,966.79
2019-05-21T10:25:05.004Z,966.93
2019-05-21T10:26:04.860Z,966.89
2019-05-21T10:27:05.172Z,966.86
2019-05-21T10:28:04.462Z,966.92
2019-05-21T10:29:04.677Z,966.95
2019-05-21T10:30:04.992Z,966.89
2019-05-21T10:31:05.345Z,966.77
2019-05-21T10:32:04.589Z,966.92
2019-05-21T10:33:04.826Z,966.74
2019-05-21T10:34:04.996Z,966.91
2019-05-21T10:35:05.862Z,966.88
2019-05-21T10:36:05.106Z,966.94
2019-05-21T10:37:04.726Z,967.00
2019-05-21T10:38:05.137Z,967.00
2019-05-21T10:39:05.423Z,966.99
2019-05-21T10:40:04.767Z,966.96
2019-05-21T10:41:05.400Z,967.01
2019-05-21T10:42:04.755Z,967.01
2019-05-21T10:43:05.376Z,967.01
2019-05-21T10:44:10.428Z,966.99
2019-05-21T10:45:04.893Z,967.01
2019-05-21T10:46:04.951Z,966.98
2019-05-21T10:47:05.440Z,967.05
2019-05-21T10:48:05.194Z,967.00
2019-05-21T10:49:05.257Z,967.02
2019-05-21T10:50:05.348Z,967.08
2019-05-21T10:51:05.327Z,967.19
2019-05-21T10:52:05.491Z,967.11
2019-05-21T10:53:04.566Z,967.05
2019-05-21T10:54:04.836Z,967.05
2019-05-21T10:55:05.071Z,967.05
2019-05-21T10:56:04.571Z,967.20
2019-05-21T10:57:05.225Z,967.08
2019-05-21T10:58:04.786Z,967.09
2019-05-21T10:59:04.936Z,967.17
2019-05-21T11:00:05.234Z,967.15
2019-05-21T11:01:05.347Z,967.06
2019-05-21T11:02:04.899Z,967.15
2019-05-21T11:03:04.845Z,967.06
2019-05-21T11:04:04.989Z,966.95
2019-05-21T11:05:04.999Z,967.20
2019-05-21T11:06:10.796Z,967.20
2019-05-21T11:07:05.679Z,967.11
2019-05-21T11:08:24.919Z,967.08
2019-05-21T11:09:05.388Z,967.14
2019-05-21T11:10:05.147Z,967.17
2019-05-21T11:11:05.539Z,967.20
2019-05-21T11:12:05.245Z,967.26
2019-05-21T11:13:05.531Z,967.14
2019-05-21T11:14:04.826Z,967.23
2019-05-21T11:15:04.565Z,967.20
2019-05-21T11:16:04.690Z,967.28
2019-05-21T11:17:05.182Z,967.14
2019-05-21T11:18:12.115Z,967.19
2019-05-21T11:19:04.802Z,967.13
2019-05-21T11:20:05.076Z,967.30
2019-05-21T11:21:05.278Z,967.33
2019-05-21T11:22:05.322Z,967.18
2019-05-21T11:23:05.378Z,967.14
2019-05-21T11:24:04.648Z,967.22
2019-05-21T11:25:04.860Z,967.24
2019-05-21T11:26:06.064Z,967.21
2019-05-21T11:27:05.327Z,967.21
2019-05-21T11:28:06.667Z,967.32
2019-05-21T11:29:05.352Z,967.29
2019-05-21T11:30:05.427Z,967.26
2019-05-21T11:31:05.523Z,967.20
2019-05-21T11:32:05.604Z,967.20
2019-05-21T11:33:04.522Z,967.14
2019-05-21T11:34:04.842Z,967.17
2019-05-21T11:35:05.004Z,967.22
2019-05-21T11:36:04.835Z,967.25
2019-05-21T11:37:05.142Z,967.20
2019-05-21T11:38:04.551Z,967.34
2019-05-21T11:39:04.719Z,967.34
2019-05-21T11:40:04.829Z,967.34
2019-05-21T11:41:05.592Z,967.25
2019-05-21T11:42:04.738Z,967.28
2019-05-21T11:43:04.616Z,967.19
2019-05-21T11:44:09.943Z,967.28
2019-05-21T11:45:05.514Z,967.30
2019-05-21T11:46:04.463Z,967.27
2019-05-21T11:47:05.156Z,967.36
2019-05-21T11:48:05.200Z,967.27
2019-05-21T11:49:05.348Z,967.29
2019-05-21T11:50:04.547Z,967.29
2019-05-21T11:51:04.925Z,967.26
2019-05-21T11:52:05.470Z,967.39
2019-05-21T11:53:04.993Z,967.25
2019-05-21T11:54:05.012Z,967.34
2019-05-21T11:55:05.841Z,967.30
2019-05-21T11:56:06.527Z,967.27
2019-05-21T11:57:04.947Z,967.33
2019-05-21T11:58:04.676Z,967.40
2019-05-21T11:59:04.878Z,967.51
2019-05-21T12:00:04.513Z,967.39
2019-05-21T12:01:04.965Z,967.48
2019-05-21T12:10:05.360Z,967.52
2019-05-21T12:11:05.390Z,967.43
2019-05-21T12:12:05.349Z,967.52
2019-05-21T12:13:04.617Z,967.50
2019-05-21T12:14:04.729Z,967.56
2019-05-21T12:15:05.094Z,967.59
2019-05-21T12:16:04.778Z,967.56
2019-05-21T12:17:05.164Z,967.45
2019-05-21T12:18:04.855Z,967.45
2019-05-21T12:19:08.732Z,967.60
2019-05-21T12:20:05.565Z,967.48
2019-05-21T12:21:04.748Z,967.43
2019-05-21T12:22:05.168Z,967.35
2019-05-21T12:23:04.859Z,967.46
2019-05-21T12:24:04.946Z,967.49
2019-05-21T12:25:05.074Z,967.52
2019-05-21T12:26:05.206Z,967.48
2019-05-21T12:27:04.771Z,967.59
2019-05-21T12:28:04.492Z,967.53
2019-05-21T12:29:04.970Z,967.44
2019-05-21T12:30:05.319Z,967.58
2019-05-21T12:31:04.887Z,967.48
2019-05-21T12:32:05.246Z,967.51
2019-05-21T12:33:05.322Z,967.53
2019-05-21T12:34:05.408Z,967.49
2019-05-21T12:35:04.873Z,967.52
2019-05-21T12:36:04.983Z,967.51